createdAt,value
2023-02-13T00:01:57.789Z,99880.09
2023-02-13T00:07:18.788Z,99870.31
2023-02-13T00:12:39.747Z,99867.34
2023-02-13T00:18:01.564Z,99859.03
2023-02-13T00:23:22.528Z,99857.06
2023-02-13T00:28:43.645Z,99866.66
2023-02-13T00:34:04.854Z,99874.75
2023-02-13T00:39:25.940Z,99866.91
2023-02-13T00:44:46.958Z,99865.84
2023-02-13T00:50:07.764Z,99875.69
2023-02-13T00:55:29.389Z,99864.09
2023-02-13T01:00:52.298Z,99860.78
2023-02-13T01:06:13.495Z,99863.09
2023-02-13T01:11:34.641Z,99869.16
2023-02-13T01:16:55.353Z,99863.84
2023-02-13T01:22:16.197Z,99859.81
2023-02-13T01:27:38.265Z,99854.50
2023-02-13T01:32:59.371Z,99852.72
2023-02-13T01:38:20.096Z,99846.94
2023-02-13T01:43:51.176Z,99855.50
2023-02-13T01:49:18.807Z,99850.72
2023-02-13T01:54:39.882Z,99848.00
2023-02-13T02:00:09.554Z,99854.59
2023-02-13T02:05:40.494Z,99846.28
2023-02-13T02:11:07.397Z,99847.09
2023-02-13T02:16:28.598Z,99845.34
2023-02-13T02:22:28.569Z,99837.53
2023-02-13T02:28:23.932Z,99836.78
2023-02-13T02:34:00.247Z,99835.53
2023-02-13T02:40:00.784Z,99829.97
2023-02-13T02:45:33.936Z,99822.41
2023-02-13T02:51:13.468Z,99825.19
2023-02-13T02:56:41.290Z,99816.84
2023-02-13T03:02:21.210Z,99816.56
2023-02-13T03:07:44.222Z,99815.53
2023-02-13T03:13:23.385Z,99805.47
2023-02-13T03:19:06.428Z,99810.00
2023-02-13T03:24:46.371Z,99815.06
2023-02-13T03:30:16.938Z,99815.34
2023-02-13T03:36:21.410Z,99816.09
2023-02-13T03:41:45.877Z,99818.59
2023-02-13T03:47:07.007Z,99807.75
2023-02-13T03:52:43.351Z,99803.97
2023-02-13T03:58:28.535Z,99815.06
2023-02-13T04:03:52.682Z,99811.00
2023-02-13T04:09:13.554Z,99812.25
2023-02-13T04:14:41.090Z,99818.31
2023-02-13T04:20:02.144Z,99811.00
2023-02-13T04:25:23.396Z,99817.06
2023-02-13T04:30:44.443Z,99810.00
2023-02-13T04:36:30.540Z,99806.94
2023-02-13T04:42:00.642Z,99814.72
2023-02-13T04:47:21.506Z,99823.31
2023-02-13T04:52:42.440Z,99821.28
2023-02-13T04:58:03.410Z,99816.50
2023-02-13T05:03:24.153Z,99813.47
2023-02-13T05:08:45.267Z,99806.41
2023-02-13T05:14:06.290Z,99806.69
2023-02-13T05:19:27.317Z,99808.97
2023-02-13T05:24:48.298Z,99807.69
2023-02-13T05:30:10.114Z,99817.75
2023-02-13T05:35:32.266Z,99826.84
2023-02-13T05:40:53.349Z,99819.28
2023-02-13T05:46:14.436Z,99812.97
2023-02-13T05:51:35.790Z,99820.53
2023-02-13T05:56:57.187Z,99816.50
2023-02-13T06:02:18.087Z,99822.28
2023-02-13T06:07:39.101Z,99820.06
2023-02-13T06:13:00.448Z,99831.63
2023-02-13T06:18:21.336Z,99825.31
2023-02-13T06:23:42.034Z,99826.84
2023-02-13T06:29:03.860Z,99831.63
2023-02-13T06:34:26.289Z,99825.31
2023-02-13T06:39:47.287Z,99830.38
2023-02-13T06:45:09.152Z,99834.88
2023-02-13T06:50:29.991Z,99833.59
2023-02-13T06:55:55.013Z,99830.78
2023-02-13T07:01:16.444Z,99833.50
2023-02-13T07:06:37.791Z,99823.91
2023-02-13T07:11:58.779Z,99833.47
2023-02-13T07:17:19.891Z,99838.03
2023-02-13T07:22:40.873Z,99844.50
2023-02-13T07:28:05.324Z,99853.53
2023-02-13T07:33:26.525Z,99855.75
2023-02-13T07:38:47.454Z,99861.72
2023-02-13T07:44:08.585Z,99857.09
2023-02-13T07:49:29.851Z,99858.72
2023-02-13T07:54:51.480Z,99858.16
2023-02-13T08:00:15.814Z,99864.63
2023-02-13T08:05:36.567Z,99856.66
2023-02-13T08:11:16.016Z,99853.94
2023-02-13T08:16:37.270Z,99848.56
2023-02-13T08:21:58.899Z,99852.47
2023-02-13T08:27:20.138Z,99842.47
2023-02-13T08:32:53.398Z,99847.44
2023-02-13T08:38:14.588Z,99845.00
2023-02-13T08:43:35.341Z,99846.66
2023-02-13T08:48:56.223Z,99852.06
2023-02-13T08:54:17.162Z,99854.16
2023-02-13T08:59:38.006Z,99859.25
2023-02-13T09:04:58.871Z,99857.03
2023-02-13T09:10:19.758Z,99862.53
2023-02-13T09:15:40.994Z,99866.31
2023-02-13T09:21:03.685Z,99858.91
2023-02-13T09:26:24.717Z,99865.53
2023-02-13T09:31:46.092Z,99872.19
2023-02-13T09:37:06.993Z,99866.88
2023-02-13T09:42:32.912Z,99876.22
2023-02-13T09:47:53.660Z,99871.41
2023-02-13T09:53:20.423Z,99872.81
2023-02-13T09:58:53.769Z,99878.25
2023-02-13T10:04:27.716Z,99874.16
2023-02-13T10:10:07.889Z,99882.22
2023-02-13T10:15:31.657Z,99887.13
2023-02-13T10:20:54.458Z,99885.84
2023-02-13T10:26:20.106Z,99887.69
2023-02-13T10:31:41.435Z,99878.59
2023-02-13T10:37:02.393Z,99873.25
2023-02-13T10:42:44.087Z,99866.34
2023-02-13T10:48:16.254Z,99876.03
2023-02-13T10:53:36.992Z,99870.22
2023-02-13T10:59:30.609Z,99863.16
2023-02-13T11:04:59.401Z,99856.13
2023-02-13T11:10:22.522Z,99858.81
2023-02-13T11:15:43.330Z,99852.63
2023-02-13T11:21:14.896Z,99842.66
2023-02-13T11:26:37.112Z,99849.56
2023-02-13T11:32:07.449Z,99848.94
2023-02-13T11:37:29.862Z,99851.59
2023-02-13T11:42:50.818Z,99843.97
2023-02-13T11:48:21.168Z,99844.22
2023-02-13T11:53:42.182Z,99834.16
2023-02-13T11:59:03.382Z,99836.88
2023-02-13T12:04:24.899Z,99820.81
2023-02-13T12:09:46.974Z,99825.50
2023-02-13T12:15:19.095Z,99814.06
2023-02-13T12:20:58.608Z,99809.22
2023-02-13T12:26:37.169Z,99804.22
2023-02-13T12:31:58.175Z,99795.53
2023-02-13T12:37:19.330Z,99784.72
2023-02-13T12:42:52.553Z,99781.31
2023-02-13T12:48:32.044Z,99775.31
2023-02-13T12:54:07.990Z,99771.16
2023-02-13T13:00:07.321Z,99766.88
2023-02-13T13:06:11.775Z,99763.34
2023-02-13T13:11:34.508Z,99764.47
2023-02-13T13:17:07.361Z,99771.81
2023-02-13T13:22:51.253Z,99769.06
2023-02-13T13:28:16.032Z,99770.94
2023-02-13T13:33:37.068Z,99764.94
2023-02-13T13:39:10.044Z,99751.97
2023-02-13T13:44:49.257Z,99746.75
2023-02-13T13:50:22.286Z,99748.41
2023-02-13T13:56:10.530Z,99749.00
2023-02-13T14:01:31.797Z,99752.16
2023-02-13T14:06:56.409Z,99762.72
2023-02-13T14:12:29.764Z,99761.22
2023-02-13T14:17:51.397Z,99768.44
2023-02-13T14:23:53.815Z,99760.81
2023-02-13T14:29:28.533Z,99761.25
2023-02-13T14:34:52.562Z,99762.38
2023-02-13T14:40:15.336Z,99764.72
2023-02-13T14:45:56.042Z,99766.06
2023-02-13T14:51:47.453Z,99760.69
2023-02-13T14:57:20.678Z,99755.00
2023-02-13T15:02:44.666Z,99753.06
2023-02-13T15:08:16.424Z,99736.59
2023-02-13T15:13:41.096Z,99731.97
2023-02-13T15:19:02.299Z,99734.38
2023-02-13T15:24:23.985Z,99735.72
2023-02-13T15:29:59.733Z,99734.03
2023-02-13T15:35:34.575Z,99745.06
2023-02-13T15:41:04.267Z,99734.06
2023-02-13T15:46:33.688Z,99723.81
2023-02-13T15:52:07.017Z,99715.25
2023-02-13T15:57:28.206Z,99718.63
2023-02-13T16:02:49.425Z,99709.94
2023-02-13T16:08:27.444Z,99707.56
2023-02-13T16:14:01.522Z,99699.28
2023-02-13T16:19:32.935Z,99703.28
2023-02-13T16:25:04.156Z,99706.44
2023-02-13T16:30:41.192Z,99698.50
2023-02-13T16:36:11.051Z,99692.44
2023-02-13T16:41:32.238Z,99704.41
2023-02-13T16:47:03.246Z,99722.78
2023-02-13T16:52:26.681Z,99731.81
2023-02-13T16:57:47.649Z,99709.06
2023-02-13T17:03:10.531Z,99732.66
2023-02-13T17:08:32.916Z,99726.25
2023-02-13T17:13:53.590Z,99732.69
2023-02-13T17:19:14.579Z,99725.75
2023-02-13T17:24:36.146Z,99704.94
2023-02-13T17:29:57.512Z,99700.69
2023-02-13T17:35:18.605Z,99709.34
2023-02-13T17:40:41.106Z,99693.00
2023-02-13T17:46:02.241Z,99688.72
2023-02-13T17:51:23.314Z,99705.34
2023-02-13T17:56:44.793Z,99700.84
2023-02-13T18:02:24.312Z,99694.06
2023-02-13T18:07:45.977Z,99707.94
2023-02-13T18:13:06.996Z,99701.94
2023-02-13T18:18:28.175Z,99699.94
2023-02-13T18:23:53.094Z,99699.75
2023-02-13T18:29:14.199Z,99694.69
2023-02-13T18:34:35.556Z,99701.78
2023-02-13T18:39:56.946Z,99707.63
2023-02-13T18:45:17.946Z,99685.94
2023-02-13T18:50:40.992Z,99693.28
2023-02-13T18:56:03.276Z,99681.22
2023-02-13T19:01:24.481Z,99680.97
2023-02-13T19:06:45.879Z,99668.66
2023-02-13T19:12:07.893Z,99667.44
2023-02-13T19:17:29.278Z,99659.91
2023-02-13T19:22:51.126Z,99658.16
2023-02-13T19:28:12.205Z,99651.16
2023-02-13T19:33:33.087Z,99665.00
2023-02-13T19:38:55.465Z,99650.41
2023-02-13T19:44:16.324Z,99673.34
2023-02-13T19:49:37.190Z,99661.78
2023-02-13T19:54:58.065Z,99666.84
2023-02-13T20:00:19.932Z,99671.88
2023-02-13T20:05:41.091Z,99660.09
2023-02-13T20:11:02.067Z,99662.66
2023-02-13T20:16:23.336Z,99651.59
2023-02-13T20:21:44.506Z,99662.69
2023-02-13T20:27:05.610Z,99663.22
2023-02-13T20:32:27.532Z,99666.72
2023-02-13T20:37:58.947Z,99661.72
2023-02-13T20:43:21.064Z,99662.75
2023-02-13T20:48:42.527Z,99663.25
2023-02-13T20:54:03.810Z,99675.81
2023-02-13T20:59:27.736Z,99656.00
2023-02-13T21:04:48.740Z,99663.53
2023-02-13T21:10:10.204Z,99671.34
2023-02-13T21:15:31.248Z,99663.56
2023-02-13T21:20:52.222Z,99676.13
2023-02-13T21:26:15.640Z,99677.38
2023-02-13T21:31:39.245Z,99686.19
2023-02-13T21:37:00.977Z,99683.97
2023-02-13T21:42:21.884Z,99689.00
2023-02-13T21:47:44.721Z,99695.00
2023-02-13T21:53:05.810Z,99684.22
2023-02-13T21:58:27.765Z,99692.25
2023-02-13T22:03:49.252Z,99699.03
2023-02-13T22:09:14.475Z,99713.09
2023-02-13T22:14:35.559Z,99713.56
2023-02-13T22:19:56.363Z,99721.88
2023-02-13T22:25:17.147Z,99719.09
2023-02-13T22:30:38.593Z,99722.84
2023-02-13T22:36:00.308Z,99725.88
2023-02-13T22:41:23.419Z,99732.91
2023-02-13T22:46:45.397Z,99748.19
2023-02-13T22:52:06.513Z,99758.97
2023-02-13T22:57:27.314Z,99756.72
2023-02-13T23:02:48.543Z,99770.31
2023-02-13T23:08:09.580Z,99770.34
2023-02-13T23:13:30.642Z,99775.41
2023-02-13T23:18:52.804Z,99776.69
2023-02-13T23:24:13.615Z,99788.22
2023-02-13T23:29:34.669Z,99789.75
2023-02-13T23:34:55.440Z,99794.75
2023-02-13T23:40:16.459Z,99801.28
2023-02-13T23:45:38.393Z,99798.97
2023-02-13T23:50:59.745Z,99799.50
2023-02-13T23:56:22.373Z,99790.44
